Time;durP1;ratioP1;P1;durP2;ratioP2;P2;SDS_P1;SDS_P2;PMS_P1;PMS_P2;Temp;Humidity;BMP_temperature;BMP_pressure;BME280_temperature;BME280_humidity;BME280_pressure;Samples;Min_cycle;Max_cycle;Signal;HPM_P1;HPM_P2
2021/10/17 00:00:06;;;;;;;3.40;2.90;;;;;;;6.34;67.52;99339.78;5088007;28;42269;-79
2021/10/17 00:02:40;;;;;;;4.27;3.07;;;;;;;6.54;68.55;99357.47;5088988;28;39998;-79
2021/10/17 00:05:09;;;;;;;2.93;2.17;;;;;;;6.58;68.37;99354.66;5088135;28;42382;-79
2021/10/17 00:07:44;;;;;;;5.37;2.87;;;;;;;6.62;70.38;99343.09;5088289;28;42994;-80
2021/10/17 00:10:14;;;;;;;4.33;2.70;;;;;;;6.65;69.37;99355.28;5086518;28;41953;-79
2021/10/17 00:12:42;;;;;;;4.30;2.50;;;;;;;6.71;68.89;99358.53;5089031;28;40211;-79
2021/10/17 00:15:12;;;;;;;4.70;3.20;;;;;;;6.79;69.09;99364.38;5074807;28;41744;-78
2021/10/17 00:17:41;;;;;;;3.13;2.40;;;;;;;6.77;68.95;99358.28;5075323;28;41817;-78
2021/10/17 00:20:10;;;;;;;6.07;3.07;;;;;;;6.73;68.54;99342.66;5091291;28;43048;-78
2021/10/17 00:22:37;;;;;;;3.07;2.30;;;;;;;6.69;68.23;99327.91;5075255;28;39908;-78
2021/10/17 00:25:08;;;;;;;3.23;2.40;;;;;;;6.93;68.45;99369.06;5090872;28;42674;-78
2021/10/17 00:27:35;;;;;;;4.23;2.27;;;;;;;6.93;68.69;99368.19;5075269;28;41689;-78
2021/10/17 00:30:05;;;;;;;3.30;2.50;;;;;;;6.92;68.65;99361.25;5074699;28;40845;-79
2021/10/17 00:32:33;;;;;;;3.27;2.27;;;;;;;6.85;68.62;99353.56;5075474;28;38928;-79
2021/10/17 00:35:01;;;;;;;5.37;2.73;;;;;;;6.82;68.35;99343.16;5075007;28;41864;-78
2021/10/17 00:37:30;;;;;;;2.83;1.80;;;;;;;6.97;68.01;99356.63;5074673;28;41578;-77
2021/10/17 00:39:57;;;;;;;3.77;2.53;;;;;;;6.84;68.46;99340.47;5074714;28;41098;-78
2021/10/17 00:42:26;;;;;;;2.73;2.43;;;;;;;6.87;68.33;99357.94;5074191;28;39058;-78
2021/10/17 00:44:58;;;;;;;2.80;2.43;;;;;;;7.00;68.37;99364.44;5091233;28;41868;-78
2021/10/17 00:47:26;;;;;;;4.27;2.47;;;;;;;6.98;68.57;99366.25;5057583;28;41734;-79
2021/10/17 00:49:54;;;;;;;4.23;3.03;;;;;;;7.00;68.49;99374.97;5075210;28;41634;-78
2021/10/17 00:52:22;;;;;;;4.50;2.97;;;;;;;7.02;68.53;99373.13;5092543;28;40059;-79
2021/10/17 00:54:50;;;;;;;3.10;2.73;;;;;;;7.03;68.93;99369.56;5091110;28;42256;-78
2021/10/17 00:57:18;;;;;;;3.47;2.53;;;;;;;7.03;68.68;99364.31;5091587;28;43849;-78
2021/10/17 00:59:47;;;;;;;3.10;2.63;;;;;;;6.99;68.62;99366.19;5073932;28;42316;-78
2021/10/17 01:02:15;;;;;;;3.40;2.00;;;;;;;7.15;68.75;99369.09;5073460;28;38768;-78
2021/10/17 01:04:43;;;;;;;2.07;1.83;;;;;;;7.11;69.22;99356.94;5090874;28;42703;-77
2021/10/17 01:07:10;;;;;;;4.13;2.50;;;;;;;7.10;69.21;99353.47;5090269;28;42798;-77
2021/10/17 01:09:39;;;;;;;3.73;2.50;;;;;;;7.13;68.83;99350.72;5091900;28;42175;-78
2021/10/17 01:12:11;;;;;;;3.10;1.93;;;;;;;7.30;69.28;99372.84;5090183;28;39896;-78
2021/10/17 01:14:38;;;;;;;2.80;1.83;;;;;;;7.33;68.99;99364.81;5092500;28;41753;-78
2021/10/17 01:17:07;;;;;;;2.50;1.73;;;;;;;7.33;68.99;99356.91;5073227;28;41519;-77
2021/10/17 01:19:36;;;;;;;2.70;2.03;;;;;;;7.40;69.37;99359.25;5090125;28;42397;-78
2021/10/17 01:22:12;;;;;;;4.03;2.13;;;;;;;7.40;69.17;99353.13;5073119;28;38896;-79
2021/10/17 01:24:40;;;;;;;1.87;1.77;;;;;;;7.43;69.12;99356.47;5090486;28;42501;-79
2021/10/17 01:27:08;;;;;;;2.93;2.27;;;;;;;7.39;68.80;99344.38;5089923;28;41606;-79
2021/10/17 01:29:36;;;;;;;4.40;2.17;;;;;;;7.50;68.99;99350.03;5073664;28;41068;-79
2021/10/17 01:32:04;;;;;;;5.00;1.80;;;;;;;7.53;69.58;99341.16;5074399;28;40220;-79
2021/10/17 01:34:31;;;;;;;4.17;2.57;;;;;;;7.33;69.29;99310.34;5074331;28;43206;-79
2021/10/17 01:36:59;;;;;;;3.60;2.60;;;;;;;7.56;69.36;99349.75;5074406;28;41819;-79
2021/10/17 01:39:28;;;;;;;2.10;1.80;;;;;;;7.60;69.10;99339.09;5090836;28;43430;-79
2021/10/17 01:41:55;;;;;;;1.87;1.73;;;;;;;7.62;68.88;99342.53;5074123;28;40249;-78
2021/10/17 01:44:28;;;;;;;2.43;2.13;;;;;;;7.61;69.35;99333.75;5072387;28;41652;-79
2021/10/17 01:46:58;;;;;;;4.00;1.83;;;;;;;7.47;69.36;99313.28;5090965;28;42844;-79
2021/10/17 01:49:29;;;;;;;2.53;1.80;;;;;;;7.66;68.95;99339.72;5057045;28;42149;-79
2021/10/17 01:51:59;;;;;;;2.87;1.90;;;;;;;7.69;69.41;99334.28;5091329;28;40880;-79
2021/10/17 01:54:28;;;;;;;2.70;2.20;;;;;;;7.72;69.03;99334.16;5073240;28;40878;-78
2021/10/17 01:56:55;;;;;;;3.00;1.87;;;;;;;7.75;69.57;99330.53;5073219;28;43628;-79
2021/10/17 01:59:32;;;;;;;2.70;2.50;;;;;;;7.75;69.69;99335.81;5062660;28;42044;-79
2021/10/17 02:02:09;;;;;;;2.83;2.40;;;;;;;7.63;69.49;99309.97;5089954;28;40684;-80
2021/10/17 02:04:36;;;;;;;4.00;2.27;;;;;;;7.69;69.39;99322.88;5073457;28;40975;-79
2021/10/17 02:07:05;;;;;;;3.03;2.10;;;;;;;7.68;69.61;99314.13;5090121;28;42801;-79
2021/10/17 02:09:34;;;;;;;2.10;1.90;;;;;;;7.75;69.56;99317.34;5089912;28;43083;-79
2021/10/17 02:12:05;;;;;;;2.27;1.93;;;;;;;7.82;69.56;99318.78;5073438;28;39849;-80
2021/10/17 02:14:34;;;;;;;2.40;2.20;;;;;;;7.86;69.58;99330.91;5073511;28;42118;-79
2021/10/17 02:17:05;;;;;;;3.40;2.60;;;;;;;7.78;69.39;99309.31;5089961;28;42785;-79
2021/10/17 02:19:33;;;;;;;2.37;1.87;;;;;;;7.90;69.19;99317.53;5073825;28;42260;-79
2021/10/17 02:22:02;;;;;;;2.93;2.10;;;;;;;7.92;69.14;99312.19;5073054;28;39839;-79
2021/10/17 02:24:30;;;;;;;2.73;1.87;;;;;;;7.94;69.40;99307.69;5090198;28;41637;-78
2021/10/17 02:26:59;;;;;;;2.30;1.87;;;;;;;7.95;69.80;99314.69;5074157;28;42517;-79
2021/10/17 02:29:43;;;;;;;2.33;2.13;;;;;;;7.89;69.82;99305.28;5073433;28;41119;-79
2021/10/17 02:32:44;;;;;;;2.30;2.10;;;;;;;7.88;70.04;99292.16;5068085;28;39967;-79
2021/10/17 02:35:22;;;;;;;2.57;2.07;;;;;;;7.82;70.05;99302.97;5072880;28;40515;-79
2021/10/17 02:37:51;;;;;;;4.10;2.37;;;;;;;7.73;70.25;99298.97;5073228;28;41622;-79
2021/10/17 02:40:20;;;;;;;3.80;2.37;;;;;;;7.68;70.36;99300.06;5088592;28;42343;-79
2021/10/17 02:42:49;;;;;;;3.07;2.17;;;;;;;7.64;70.49;99298.53;5089610;28;40035;-79
2021/10/17 02:45:17;;;;;;;3.73;2.30;;;;;;;7.41;70.34;99274.03;5089206;28;42557;-79
2021/10/17 02:47:45;;;;;;;3.70;2.47;;;;;;;7.32;70.50;99266.50;5089580;28;43154;-79
2021/10/17 02:50:13;;;;;;;3.20;2.10;;;;;;;7.45;70.75;99295.81;5072819;28;42328;-79
2021/10/17 02:52:41;;;;;;;2.80;1.90;;;;;;;7.39;70.58;99291.66;5072449;28;38882;-79
2021/10/17 02:55:10;;;;;;;3.50;2.67;;;;;;;7.21;70.86;99279.25;5071926;28;40833;-79
2021/10/17 02:57:38;;;;;;;1.93;1.70;;;;;;;7.17;70.53;99282.97;5089762;28;42305;-79
2021/10/17 03:00:08;;;;;;;3.47;2.27;;;;;;;7.13;70.63;99298.03;5089578;28;43209;-78
2021/10/17 03:02:36;;;;;;;3.23;2.07;;;;;;;7.10;71.25;99292.88;5073422;28;40062;-79
2021/10/17 03:05:04;;;;;;;3.23;2.57;;;;;;;7.03;71.81;99294.06;5088680;28;41495;-79
2021/10/17 03:07:33;;;;;;;2.97;1.90;;;;;;;6.96;71.49;99299.63;5072674;28;41981;-78
2021/10/17 03:10:08;;;;;;;2.10;1.83;;;;;;;6.91;71.41;99298.97;5072090;28;41325;-78
2021/10/17 03:12:36;;;;;;;1.67;1.57;;;;;;;6.80;71.35;99288.84;5089555;28;39952;-78
2021/10/17 03:15:07;;;;;;;3.23;2.10;;;;;;;6.67;71.49;99275.38;5088876;28;42404;-79
2021/10/17 03:17:36;;;;;;;4.27;1.60;;;;;;;6.60;71.45;99280.91;5072615;28;42481;-79
2021/10/17 03:20:05;;;;;;;1.67;1.57;;;;;;;6.62;71.44;99301.00;5089512;28;42308;-79
2021/10/17 03:22:38;;;;;;;2.90;1.77;;;;;;;6.46;71.34;99289.34;5076722;28;39939;-78
2021/10/17 03:25:07;;;;;;;2.70;1.87;;;;;;;6.39;71.17;99282.63;5088916;28;41729;-79
2021/10/17 03:27:35;;;;;;;1.70;1.40;;;;;;;6.25;71.30;99277.03;5088614;28;43178;-78
2021/10/17 03:30:03;;;;;;;2.23;1.67;;;;;;;6.36;71.06;99301.13;5088651;28;42547;-79
2021/10/17 03:32:32;;;;;;;5.30;1.70;;;;;;;6.26;71.27;99291.88;5089209;28;40608;-78
2021/10/17 03:35:03;;;;;;;2.67;1.70;;;;;;;6.27;71.66;99298.88;5071691;28;41064;-79
2021/10/17 03:37:31;;;;;;;2.30;1.87;;;;;;;6.24;71.44;99304.22;5071513;28;42225;-78
2021/10/17 03:39:59;;;;;;;3.10;1.87;;;;;;;6.21;71.77;99304.34;5071720;28;41276;-78
2021/10/17 03:42:29;;;;;;;3.03;2.73;;;;;;;6.13;71.71;99297.63;5071404;28;38944;-78
2021/10/17 03:44:58;;;;;;;3.50;1.87;;;;;;;6.22;71.58;99306.06;5072003;28;41848;-78
2021/10/17 03:47:26;;;;;;;2.90;1.90;;;;;;;6.24;71.74;99304.22;5071081;28;42076;-79
2021/10/17 03:49:58;;;;;;;2.37;1.80;;;;;;;6.31;71.29;99305.69;5071688;28;41135;-78
2021/10/17 03:52:30;;;;;;;3.80;1.97;;;;;;;6.36;71.01;99311.66;5071708;28;41253;-78
2021/10/17 03:54:58;;;;;;;2.37;1.67;;;;;;;6.29;70.72;99291.78;5072123;28;41047;-78
2021/10/17 03:57:26;;;;;;;1.60;1.50;;;;;;;6.35;70.69;99304.69;5071287;28;42844;-78
2021/10/17 03:59:53;;;;;;;2.03;1.60;;;;;;;6.31;70.58;99296.03;5089359;28;43267;-78
2021/10/17 04:02:21;;;;;;;2.27;1.50;;;;;;;6.37;70.74;99305.50;5087693;28;40605;-78
2021/10/17 04:04:48;;;;;;;1.57;1.23;;;;;;;6.25;70.62;99291.03;5088695;28;41907;-78
2021/10/17 04:07:18;;;;;;;1.90;1.10;;;;;;;6.33;70.69;99306.50;5071261;28;41532;-79
2021/10/17 04:09:45;;;;;;;2.07;1.50;;;;;;;6.32;70.74;99307.41;5071746;28;41201;-78
2021/10/17 04:12:13;;;;;;;1.30;1.20;;;;;;;6.20;70.83;99282.44;5088872;28;42444;-78
2021/10/17 04:14:51;;;;;;;2.23;1.73;;;;;;;6.33;71.06;99298.63;5071536;28;40886;-78
2021/10/17 04:17:18;;;;;;;1.87;1.43;;;;;;;6.34;70.66;99300.34;5071067;28;42134;-78
2021/10/17 04:19:46;;;;;;;1.40;1.13;;;;;;;6.30;70.68;99293.50;5089320;28;42404;-78
2021/10/17 04:22:14;;;;;;;2.50;2.23;;;;;;;6.27;70.77;99283.09;5088131;28;40098;-78
2021/10/17 04:24:43;;;;;;;1.90;1.80;;;;;;;6.28;70.56;99290.91;5071638;28;40907;-78
2021/10/17 04:27:11;;;;;;;1.37;1.17;;;;;;;6.32;70.39;99296.91;5071013;28;42857;-78
2021/10/17 04:29:40;;;;;;;3.10;1.53;;;;;;;6.30;70.56;99289.09;5071440;28;41233;-78
2021/10/17 04:32:09;;;;;;;1.93;1.40;;;;;;;6.26;70.24;99287.50;5088362;28;40376;-78
2021/10/17 04:34:38;;;;;;;1.63;1.30;;;;;;;6.38;70.36;99301.94;5088275;28;41927;-78
2021/10/17 04:37:07;;;;;;;1.73;1.53;;;;;;;6.32;70.58;99297.75;5070552;28;41700;-78
2021/10/17 04:39:35;;;;;;;1.50;1.40;;;;;;;6.34;70.60;99305.59;5070676;28;40972;-77
2021/10/17 04:42:04;;;;;;;1.37;1.27;;;;;;;6.32;70.52;99312.69;5071653;28;40029;-79
2021/10/17 04:44:32;;;;;;;3.70;1.23;;;;;;;6.19;70.40;99285.13;5087609;28;41678;-78
2021/10/17 04:47:00;;;;;;;1.77;1.63;;;;;;;6.23;70.72;99287.59;5087418;28;43681;-78
2021/10/17 04:49:28;;;;;;;1.53;1.43;;;;;;;6.39;70.83;99309.78;5070647;28;41527;-77
2021/10/17 04:51:55;;;;;;;2.63;1.80;;;;;;;6.42;70.79;99303.56;5070319;28;40991;-77
2021/10/17 04:54:23;;;;;;;1.63;1.53;;;;;;;6.44;70.48;99305.19;5070364;28;40862;-78
2021/10/17 04:56:51;;;;;;;3.87;1.90;;;;;;;6.43;71.19;99299.97;5086853;28;43765;-78
2021/10/17 04:59:22;;;;;;;2.00;1.33;;;;;;;6.47;70.92;99304.22;5069878;28;42068;-78
2021/10/17 05:01:55;;;;;;;2.57;1.57;;;;;;;6.48;70.97;99296.25;5089947;28;40929;-79
2021/10/17 05:04:23;;;;;;;1.63;1.53;;;;;;;6.41;70.65;99278.16;5073939;28;40635;-78
2021/10/17 05:06:50;;;;;;;3.43;1.27;;;;;;;6.58;70.46;99301.16;5090976;28;43696;-79
2021/10/17 05:09:18;;;;;;;1.57;1.20;;;;;;;6.68;70.54;99306.00;5074259;28;41164;-79
2021/10/17 05:11:46;;;;;;;1.33;1.17;;;;;;;6.74;70.10;99303.13;5074903;28;38935;-78
2021/10/17 05:14:16;;;;;;;1.43;1.27;;;;;;;6.79;70.35;99301.19;5090117;28;42807;-78
2021/10/17 05:16:45;;;;;;;0.87;0.87;;;;;;;6.79;70.26;99292.44;5091110;28;43712;-79
2021/10/17 05:19:13;;;;;;;2.63;1.47;;;;;;;6.89;70.05;99299.03;5073851;28;41239;-79
2021/10/17 05:21:43;;;;;;;1.20;1.00;;;;;;;7.02;70.17;99315.19;5074521;28;38838;-78
2021/10/17 05:24:11;;;;;;;1.20;0.90;;;;;;;7.06;70.00;99311.50;5073058;28;40737;-78
2021/10/17 05:26:39;;;;;;;1.73;1.63;;;;;;;7.06;70.03;99308.84;5073937;28;42032;-78
2021/10/17 05:29:06;;;;;;;2.00;1.13;;;;;;;7.14;69.94;99318.19;5073678;28;41324;-77
2021/10/17 05:31:34;;;;;;;1.93;1.83;;;;;;;7.09;70.07;99295.56;5074065;28;40887;-78
2021/10/17 05:34:03;;;;;;;1.50;1.20;;;;;;;7.22;69.88;99312.59;5074436;28;40576;-79
2021/10/17 05:36:31;;;;;;;2.10;1.50;;;;;;;7.26;70.08;99308.91;5089196;28;43714;-78
2021/10/17 05:38:58;;;;;;;1.70;1.30;;;;;;;7.30;70.06;99313.13;5073645;28;42615;-79
2021/10/17 05:41:27;;;;;;;2.23;1.50;;;;;;;7.32;69.70;99311.28;5073163;28;39853;-78
2021/10/17 05:43:56;;;;;;;3.00;1.80;;;;;;;7.35;69.54;99302.41;5074349;28;41930;-78
2021/10/17 05:46:24;;;;;;;0.93;0.93;;;;;;;7.37;69.65;99301.41;5089700;28;42809;-78
2021/10/17 05:48:53;;;;;;;1.10;1.00;;;;;;;7.45;69.83;99311.63;5073357;28;41247;-78
2021/10/17 05:51:22;;;;;;;1.37;1.27;;;;;;;7.47;69.52;99309.78;5066978;28;39162;-81
2021/10/17 05:53:50;;;;;;;3.03;1.80;;;;;;;7.56;69.70;99317.28;5088962;28;42708;-79
2021/10/17 05:56:19;;;;;;;1.37;1.27;;;;;;;7.60;69.54;99312.75;5072548;28;41939;-78
2021/10/17 05:58:47;;;;;;;1.20;1.10;;;;;;;7.63;69.63;99323.16;5091156;28;42156;-79
2021/10/17 06:01:15;;;;;;;1.83;1.40;;;;;;;7.68;69.70;99322.03;5089624;28;40618;-79
2021/10/17 06:03:53;;;;;;;2.47;1.70;;;;;;;7.73;69.39;99325.31;5123777;27;41341;-79
2021/10/17 06:06:43;;;;;;;1.07;1.07;;;;;;;7.77;69.78;99331.34;5089658;28;43591;-79
2021/10/17 06:09:13;;;;;;;2.40;1.63;;;;;;;7.81;69.72;99331.13;5090386;28;42321;-79
2021/10/17 06:11:43;;;;;;;1.87;1.77;;;;;;;7.85;69.82;99335.34;5090340;28;41250;-78
2021/10/17 06:14:12;;;;;;;1.80;1.60;;;;;;;7.78;69.91;99317.22;5089280;28;41871;-78
2021/10/17 06:16:39;;;;;;;4.00;2.00;;;;;;;7.93;69.68;99342.91;5090247;28;42576;-78
2021/10/17 06:19:07;;;;;;;2.97;1.50;;;;;;;7.94;69.74;99334.06;5073695;28;42143;-83
2021/10/17 06:22:03;;;;;;;2.40;1.57;;;;;;;8.04;70.09;99345.06;5087780;28;39123;-78
2021/10/17 06:24:35;;;;;;;2.67;2.17;;;;;;;8.06;70.09;99337.94;5072900;28;40647;-80
2021/10/17 06:27:03;;;;;;;2.50;1.73;;;;;;;8.09;69.99;99343.94;5089330;28;42758;-78
2021/10/17 08:35:22;;;;;;;1.80;1.70;;;;;;;8.88;79.92;99392.28;5167574;27;21087;-79
2021/10/17 08:37:50;;;;;;;2.40;2.20;;;;;;;9.48;77.93;99388.47;5171331;27;39700;-80
2021/10/17 08:40:48;;;;;;;1.67;1.47;;;;;;;10.22;75.18;99394.38;5178057;27;40155;-78
2021/10/17 08:43:38;;;;;;;3.30;2.40;;;;;;;10.76;72.39;99398.50;5184711;27;43096;-78
2021/10/17 08:46:15;;;;;;;2.20;1.90;;;;;;;11.15;70.70;99399.88;5188764;27;41181;-78
2021/10/17 08:48:55;;;;;;;2.87;2.03;;;;;;;11.49;68.89;99404.16;5158963;27;39228;-78
2021/10/17 08:51:26;;;;;;;3.47;2.20;;;;;;;11.72;68.07;99419.59;5167646;27;41922;-80
2021/10/17 08:54:03;;;;;;;2.17;1.97;;;;;;;11.98;67.21;99412.78;5169287;27;43752;-79
2021/10/17 08:56:34;;;;;;;2.37;1.53;;;;;;;12.23;66.51;99417.50;5161256;27;41916;-80
2021/10/17 08:59:02;;;;;;;2.00;1.80;;;;;;;12.43;65.15;99424.22;5154070;27;39186;-78
2021/10/17 09:01:39;;;;;;;2.23;1.97;;;;;;;12.43;64.98;99390.56;5178040;27;42049;-79
2021/10/17 09:04:10;;;;;;;2.07;1.90;;;;;;;12.69;64.53;99401.38;5175642;27;42638;-79
2021/10/17 09:07:16;;;;;;;2.97;2.10;;;;;;;12.99;63.89;99415.38;5172971;27;42319;-79
2021/10/17 09:10:11;;;;;;;1.90;1.80;;;;;;;13.08;62.47;99417.47;5168134;27;39719;-79
2021/10/17 09:12:42;;;;;;;2.17;1.77;;;;;;;13.11;61.41;99413.75;5149133;27;40692;-79
2021/10/17 09:15:23;;;;;;;1.57;1.47;;;;;;;13.21;60.38;99438.84;5151058;27;41731;-79
2021/10/17 09:18:09;;;;;;;1.87;1.60;;;;;;;13.29;60.55;99424.09;5177829;27;43147;-79
2021/10/17 09:20:52;;;;;;;2.83;1.50;;;;;;;13.33;60.50;99410.63;5176611;27;38999;-79
2021/10/17 09:23:35;;;;;;;1.57;1.37;;;;;;;13.48;60.18;99418.44;5149096;27;40684;-79
2021/10/17 09:26:08;;;;;;;2.20;1.70;;;;;;;13.54;60.00;99398.56;5167349;27;41970;-82
2021/10/17 09:28:37;;;;;;;3.03;1.67;;;;;;;13.87;59.51;99406.94;5176080;27;43129;-80
2021/10/17 09:31:06;;;;;;;1.60;1.50;;;;;;;14.10;59.09;99407.19;5178449;27;40603;-78
2021/10/17 09:33:34;;;;;;;2.37;2.00;;;;;;;14.23;58.26;99408.06;5158314;27;40861;-78
2021/10/17 09:36:19;;;;;;;1.80;1.70;;;;;;;14.27;57.54;99401.56;5177117;27;42811;-78
2021/10/17 09:39:12;;;;;;;3.07;1.83;;;;;;;14.55;57.53;99409.41;5164737;27;41323;-78
2021/10/17 09:42:00;;;;;;;1.57;1.47;;;;;;;14.79;56.34;99412.16;5168366;27;39624;-79
2021/10/17 09:44:37;;;;;;;1.50;1.40;;;;;;;14.94;55.97;99399.56;5174327;27;42491;-80
2021/10/17 09:47:05;;;;;;;3.30;1.67;;;;;;;15.20;56.25;99409.19;5159725;27;41633;-79
2021/10/17 09:49:33;;;;;;;3.07;1.70;;;;;;;15.39;55.30;99403.34;5169806;27;43145;-77
2021/10/17 09:52:18;;;;;;;2.70;1.70;;;;;;;15.74;55.27;99416.78;5173415;27;39627;-78
2021/10/17 09:54:49;;;;;;;2.87;1.77;;;;;;;15.96;53.80;99432.91;5146028;27;41054;-80
2021/10/17 09:57:19;;;;;;;3.13;1.80;;;;;;;16.12;53.15;99437.94;5157964;27;41784;-78
2021/10/17 09:59:47;;;;;;;1.50;1.40;;;;;;;16.11;53.60;99410.38;5135450;27;41347;-79
2021/10/17 10:02:15;;;;;;;2.30;1.80;;;;;;;16.33;53.05;99427.41;5158496;27;38694;-79
2021/10/17 10:04:45;;;;;;;2.53;1.90;;;;;;;16.44;52.85;99427.47;5142772;27;41005;-80
2021/10/17 10:07:17;;;;;;;1.50;1.40;;;;;;;16.52;53.20;99419.69;5153854;27;44536;-80
2021/10/17 10:09:49;;;;;;;2.03;1.83;;;;;;;16.63;52.25;99427.75;5171353;27;42665;-78
2021/10/17 10:12:18;;;;;;;1.70;1.60;;;;;;;16.70;51.86;99428.97;5153328;27;40645;-79
2021/10/17 10:14:47;;;;;;;1.60;1.50;;;;;;;16.80;52.16;99423.78;5169184;27;42725;-80
2021/10/17 10:17:15;;;;;;;2.40;1.77;;;;;;;16.78;51.25;99415.88;5145002;27;42134;-79
2021/10/17 10:19:44;;;;;;;1.83;1.73;;;;;;;16.90;51.43;99423.88;5143115;27;41066;-80
2021/10/17 10:22:11;;;;;;;3.07;1.60;;;;;;;16.83;50.92;99408.31;5161302;27;39212;-80
2021/10/17 10:24:39;;;;;;;2.20;1.83;;;;;;;16.95;51.06;99430.56;5143064;27;40915;-79
2021/10/17 10:27:08;;;;;;;4.83;1.90;;;;;;;17.03;51.60;99424.63;5144332;27;41829;-79
2021/10/17 10:29:36;;;;;;;2.63;1.50;;;;;;;16.94;50.21;99398.59;5162585;27;41189;-78
2021/10/17 10:32:08;;;;;;;1.53;1.43;;;;;;;16.99;50.09;99380.34;5131288;27;40456;-79
2021/10/17 10:35:03;;;;;;;2.50;1.67;;;;;;;17.42;48.94;99440.16;5120770;27;41725;-81
2021/10/17 10:37:33;;;;;;;1.93;1.53;;;;;;;17.47;49.22;99439.75;5162561;27;42887;-78
2021/10/17 10:40:08;;;;;;;2.07;1.70;;;;;;;17.47;49.35;99435.25;5136604;27;42004;-80
2021/10/17 10:42:39;;;;;;;2.10;1.90;;;;;;;17.54;49.20;99441.81;5150975;27;38451;-80
2021/10/17 10:45:34;;;;;;;1.77;1.67;;;;;;;17.64;49.48;99435.72;5142766;27;41916;-81
2021/10/17 10:48:22;;;;;;;1.67;1.53;;;;;;;17.67;49.30;99441.69;5143161;27;41562;-78
2021/10/17 10:50:53;;;;;;;2.43;1.90;;;;;;;17.62;48.52;99432.28;5131037;27;41064;-79
2021/10/17 10:53:51;;;;;;;2.17;1.97;;;;;;;17.73;48.04;99448.34;5130469;27;39991;-78
2021/10/17 10:56:48;;;;;;;1.90;1.63;;;;;;;17.72;48.44;99446.66;5139500;27;41979;-80
2021/10/17 10:59:21;;;;;;;2.20;1.60;;;;;;;17.74;48.21;99436.66;5124815;27;41939;-80
2021/10/17 11:01:58;;;;;;;2.67;1.83;;;;;;;17.74;47.68;99444.72;5152147;27;40991;-78
2021/10/17 11:05:07;;;;;;;1.60;1.50;;;;;;;17.79;48.41;99429.13;5142227;27;40229;-79
2021/10/17 11:07:40;;;;;;;1.80;1.50;;;;;;;17.89;47.86;99433.56;5163669;27;40572;-79
2021/10/17 11:10:43;;;;;;;2.30;1.60;;;;;;;17.97;47.66;99434.75;5150852;27;42412;-78
2021/10/17 11:13:26;;;;;;;3.33;1.87;;;;;;;17.92;47.00;99435.16;5154911;27;42317;-82
2021/10/17 11:15:56;;;;;;;1.70;1.60;;;;;;;17.95;47.21;99429.50;5163303;27;38718;-78
2021/10/17 11:18:32;;;;;;;2.30;1.83;;;;;;;18.05;47.11;99441.16;5154810;27;41715;-79
2021/10/17 11:21:01;;;;;;;6.60;2.10;;;;;;;18.01;45.44;99434.38;5161259;27;43163;-80
2021/10/17 11:23:33;;;;;;;2.60;1.60;;;;;;;18.09;45.71;99431.88;5141353;27;42020;-79
2021/10/17 11:26:03;;;;;;;2.77;1.60;;;;;;;18.44;45.97;99430.72;5144755;27;40049;-80
2021/10/17 11:28:32;;;;;;;3.00;1.97;;;;;;;18.76;45.39;99446.78;5153872;27;41557;-79
2021/10/17 11:31:10;;;;;;;1.90;1.67;;;;;;;18.98;44.77;99447.44;5151955;27;43172;-80
2021/10/17 11:33:40;;;;;;;1.60;1.50;;;;;;;19.17;44.47;99435.91;5160151;27;42889;-82
2021/10/17 11:36:10;;;;;;;1.70;1.60;;;;;;;19.55;44.50;99442.41;5145752;27;39047;-80
2021/10/17 11:38:37;;;;;;;2.03;1.70;;;;;;;19.58;44.17;99445.69;5159609;27;41706;-80
2021/10/17 11:41:07;;;;;;;2.10;1.63;;;;;;;19.76;43.79;99412.75;5164155;27;43572;-79
2021/10/17 11:43:37;;;;;;;2.50;1.73;;;;;;;20.13;43.53;99445.19;5161874;27;42305;-80
2021/10/17 11:46:08;;;;;;;2.10;1.70;;;;;;;20.32;43.94;99427.16;5145228;27;38949;-78
2021/10/17 11:48:38;;;;;;;2.07;1.80;;;;;;;20.49;43.12;99428.31;5153843;27;42255;-81
2021/10/17 11:51:08;;;;;;;2.70;2.07;;;;;;;20.62;42.19;99444.16;5153410;27;41807;-78
2021/10/17 11:53:38;;;;;;;3.23;2.00;;;;;;;20.55;42.13;99445.72;5151644;27;42169;-79
2021/10/17 11:56:09;;;;;;;2.23;1.90;;;;;;;20.41;42.62;99431.72;5162356;27;39945;-79
2021/10/17 11:58:38;;;;;;;3.03;2.33;;;;;;;20.21;42.33;99416.56;5149470;27;41619;-78
2021/10/17 12:01:12;;;;;;;1.80;1.70;;;;;;;19.94;41.48;99421.81;5153029;27;43739;-80
2021/10/17 12:03:40;;;;;;;2.20;1.70;;;;;;;19.96;41.84;99438.66;5157384;27;42130;-78
2021/10/17 12:06:15;;;;;;;2.50;2.03;;;;;;;19.89;42.17;99432.16;5162578;27;39981;-80
2021/10/17 12:08:50;;;;;;;1.97;1.87;;;;;;;19.86;43.07;99413.63;5158835;27;41430;-80
2021/10/17 12:11:19;;;;;;;2.00;1.70;;;;;;;20.00;41.62;99432.00;5137446;27;42068;-81
2021/10/17 12:14:29;;;;;;;2.53;2.23;;;;;;;19.95;41.82;99434.25;5128016;27;42751;-79
2021/10/17 12:16:58;;;;;;;2.63;2.00;;;;;;;19.97;41.87;99432.28;5140716;27;40281;-79
2021/10/17 12:19:27;;;;;;;4.00;1.90;;;;;;;20.04;42.70;99422.66;5157091;27;42365;-79
2021/10/17 12:21:55;;;;;;;2.47;1.90;;;;;;;20.12;42.54;99419.28;5150051;27;43531;-79
2021/10/17 12:24:30;;;;;;;2.77;1.57;;;;;;;20.05;43.19;99414.44;5135073;27;41753;-80
2021/10/17 12:27:01;;;;;;;2.10;1.90;;;;;;;19.91;42.91;99414.03;5133872;27;38954;-81
2021/10/17 12:29:31;;;;;;;6.53;4.43;;;;;;;19.70;43.21;99406.94;5160354;27;41705;-79
2021/10/17 12:32:05;;;;;;;4.00;2.10;;;;;;;19.75;43.19;99392.25;5132894;27;41696;-80
2021/10/17 12:34:40;;;;;;;2.67;2.13;;;;;;;20.02;42.68;99405.84;5153684;27;41984;-80
2021/10/17 12:37:08;;;;;;;1.97;1.70;;;;;;;20.16;43.15;99397.31;5156310;27;39894;-80
2021/10/17 12:39:37;;;;;;;2.47;1.80;;;;;;;20.20;41.59;99404.09;5142753;27;40559;-79
2021/10/17 12:42:05;;;;;;;1.87;1.67;;;;;;;20.26;41.76;99398.16;5157200;27;41762;-78
2021/10/17 12:44:43;;;;;;;1.90;1.80;;;;;;;21.33;41.47;99404.91;5159317;27;42214;-80
2021/10/17 12:47:13;;;;;;;1.83;1.63;;;;;;;21.93;38.75;99415.97;5138948;27;38871;-80
2021/10/17 12:49:43;;;;;;;2.67;1.80;;;;;;;21.80;39.22;99407.44;5135671;27;41800;-79
2021/10/17 12:52:11;;;;;;;1.63;1.53;;;;;;;21.65;39.76;99408.94;5132344;27;41683;-79
2021/10/17 12:54:40;;;;;;;2.20;2.00;;;;;;;21.75;39.34;99389.03;5137894;27;42299;-79
2021/10/17 12:57:09;;;;;;;1.73;1.63;;;;;;;21.87;39.68;99397.75;5138428;27;39321;-79
2021/10/17 12:59:52;;;;;;;2.97;2.37;;;;;;;21.84;39.53;99408.81;5133194;27;40920;-79
2021/10/17 13:02:21;;;;;;;2.97;2.50;;;;;;;21.75;39.13;99401.66;5136317;27;41926;-81
2021/10/17 13:04:50;;;;;;;4.73;2.73;;;;;;;21.64;39.45;99402.72;5156866;27;42436;-81
2021/10/17 13:07:30;;;;;;;2.67;2.03;;;;;;;21.57;38.91;99401.63;5146692;27;40107;-79
2021/10/17 13:10:04;;;;;;;2.60;1.83;;;;;;;21.48;39.48;99397.16;5153301;27;40738;-78
2021/10/17 13:12:40;;;;;;;2.07;1.67;;;;;;;21.58;40.10;99392.56;5156478;27;42943;-80
2021/10/17 13:15:10;;;;;;;1.57;1.47;;;;;;;21.58;39.89;99384.47;5149567;27;41111;-80
2021/10/17 13:17:41;;;;;;;3.60;1.83;;;;;;;21.82;40.48;99384.72;5146594;27;40235;-80
2021/10/17 13:20:10;;;;;;;2.17;1.77;;;;;;;21.86;40.13;99377.16;5153005;27;41817;-81
2021/10/17 13:22:40;;;;;;;1.60;1.50;;;;;;;22.00;38.70;99392.84;5147485;27;41750;-80
2021/10/17 13:25:09;;;;;;;2.77;1.90;;;;;;;22.00;39.52;99383.91;5139981;27;41221;-82
2021/10/17 13:27:36;;;;;;;1.83;1.60;;;;;;;21.77;39.10;99364.59;5160132;27;39201;-80
2021/10/17 13:30:06;;;;;;;1.70;1.53;;;;;;;21.85;39.36;99379.00;5134949;27;41050;-79
2021/10/17 13:32:37;;;;;;;2.50;1.60;;;;;;;21.57;39.25;99345.03;5142548;27;41502;-84
2021/10/17 13:38:08;;;;;;;2.70;1.87;;;;;;;21.42;39.22;99386.97;5138395;27;39145;-85
2021/10/17 13:40:36;;;;;;;2.90;2.00;;;;;;;21.11;39.50;99357.66;5146090;27;41224;-83
2021/10/17 13:43:12;;;;;;;1.93;1.80;;;;;;;21.31;40.50;99368.34;5132482;27;42153;-86
2021/10/17 13:45:40;;;;;;;1.77;1.60;;;;;;;21.33;40.04;99366.34;5142398;27;41301;-85
2021/10/17 13:48:19;;;;;;;3.47;2.40;;;;;;;21.25;40.36;99371.66;5134373;27;39056;-83
2021/10/17 13:51:03;;;;;;;3.43;1.50;;;;;;;21.06;40.53;99327.63;5136012;27;41020;-88
2021/10/17 13:53:31;;;;;;;1.80;1.70;;;;;;;20.89;40.65;99350.00;5138320;27;41998;-87
2021/10/17 13:56:14;;;;;;;3.53;2.23;;;;;;;20.64;40.30;99353.34;5136160;27;41467;-84
2021/10/17 13:58:41;;;;;;;2.17;1.97;;;;;;;20.44;41.26;99331.88;5125956;27;39002;-84
2021/10/17 14:03:54;;;;;;;2.03;1.53;;;;;;;20.27;41.93;99305.72;5146009;27;42079;-84
2021/10/17 14:06:23;;;;;;;2.07;1.67;;;;;;;20.44;42.15;99347.16;5135175;27;41451;-83
2021/10/17 14:08:51;;;;;;;2.07;1.87;;;;;;;20.37;41.94;99340.69;5131440;27;39150;-84
2021/10/17 14:11:19;;;;;;;2.90;2.00;;;;;;;20.42;41.09;99360.75;5115374;27;41653;-81